createdAt,value
2024-04-24T00:01:25.651Z,96148.03
2024-04-24T00:03:52.422Z,96154.31
2024-04-24T00:06:19.450Z,96140.16
2024-04-24T00:08:46.215Z,96147.56
2024-04-24T00:11:13.016Z,96140.84
2024-04-24T00:13:39.798Z,96141.22
2024-04-24T00:16:06.869Z,96130.28
2024-04-24T00:18:33.668Z,96140.56
2024-04-24T00:21:00.399Z,96137.19
2024-04-24T00:23:27.510Z,96145.25
2024-04-24T00:25:58.159Z,96145.25
2024-04-24T00:28:24.904Z,96138.56
2024-04-24T00:30:58.172Z,96129.09
2024-04-24T00:33:25.031Z,96133.69
2024-04-24T00:35:51.947Z,96131.75
2024-04-24T00:38:18.746Z,96128.94
2024-04-24T00:40:45.573Z,96123.75
2024-04-24T00:43:12.308Z,96123.75
2024-04-24T00:45:39.423Z,96128.78
2024-04-24T00:48:07.627Z,96123.28
2024-04-24T00:50:35.716Z,96122.28
2024-04-24T00:53:03.876Z,96113.72
2024-04-24T00:55:31.237Z,96110.13
2024-04-24T00:57:58.211Z,96112.72
2024-04-24T01:00:25.611Z,96110.25
2024-04-24T01:02:52.696Z,96107.81
2024-04-24T01:05:19.590Z,96105.81
2024-04-24T01:07:46.470Z,96108.19
2024-04-24T01:10:17.752Z,96098.31
2024-04-24T01:12:49.590Z,96104.47
2024-04-24T01:15:17.727Z,96089.50
2024-04-24T01:17:48.992Z,96096.31
2024-04-24T01:20:19.475Z,96092.94
2024-04-24T01:22:52.528Z,96094.47
2024-04-24T01:25:27.782Z,96088.34
2024-04-24T01:27:54.564Z,96094.72
2024-04-24T01:30:21.297Z,96090.09
2024-04-24T01:32:48.117Z,96068.59
2024-04-24T01:35:15.213Z,96075.47
2024-04-24T01:37:41.981Z,96070.97
2024-04-24T01:40:09.043Z,96079.28
2024-04-24T01:42:35.862Z,96076.84
2024-04-24T01:45:03.776Z,96073.59
2024-04-24T01:47:30.997Z,96073.84
2024-04-24T01:49:57.804Z,96068.63
2024-04-24T01:52:24.495Z,96065.94
2024-04-24T01:54:51.884Z,96063.19
2024-04-24T01:57:18.835Z,96073.88
2024-04-24T01:59:47.384Z,96067.13
2024-04-24T02:02:14.150Z,96057.59
2024-04-24T02:04:41.444Z,96058.25
2024-04-24T02:07:08.516Z,96050.38
2024-04-24T02:09:35.701Z,96051.88
2024-04-24T02:12:10.195Z,96058.00
2024-04-24T02:14:42.638Z,96051.03
2024-04-24T02:17:10.330Z,96057.75
2024-04-24T02:19:37.498Z,96049.19
2024-04-24T02:22:04.351Z,96054.97
2024-04-24T02:24:49.782Z,96057.25
2024-04-24T02:27:17.290Z,96047.78
2024-04-24T02:29:51.833Z,96051.41
2024-04-24T02:32:23.214Z,96048.03
2024-04-24T02:34:50.334Z,96048.03
2024-04-24T02:37:18.008Z,96048.16
2024-04-24T02:39:45.549Z,96043.72
2024-04-24T02:42:12.627Z,96042.81
2024-04-24T02:44:39.890Z,96041.13
2024-04-24T02:47:06.917Z,96034.91
2024-04-24T02:49:33.836Z,96027.84
2024-04-24T02:52:00.711Z,96025.25
2024-04-24T02:54:28.573Z,96013.91
2024-04-24T02:56:55.274Z,96014.63
2024-04-24T02:59:22.083Z,96012.97
2024-04-24T03:01:48.981Z,96016.41
2024-04-24T03:04:15.704Z,96012.03
2024-04-24T03:06:45.303Z,96012.22
2024-04-24T03:09:13.204Z,96005.22
2024-04-24T03:11:41.239Z,96014.91
2024-04-24T03:14:09.474Z,96005.47
2024-04-24T03:16:36.975Z,96010.69
2024-04-24T03:19:05.123Z,96005.72
2024-04-24T03:21:32.365Z,96003.13
2024-04-24T03:23:59.420Z,96001.47
2024-04-24T03:26:27.942Z,95997.19
2024-04-24T03:28:56.580Z,95999.16
2024-04-24T03:31:23.815Z,96006.97
2024-04-24T03:33:51.822Z,96000.94
2024-04-24T03:36:18.958Z,96001.13
2024-04-24T03:38:45.717Z,95990.78
2024-04-24T03:41:12.823Z,95995.06
2024-04-24T03:43:40.507Z,95986.31
2024-04-24T03:46:07.614Z,95982.88
2024-04-24T03:48:34.785Z,95981.94
2024-04-24T03:51:02.026Z,95992.38
2024-04-24T03:53:28.874Z,95982.81
2024-04-24T03:55:55.705Z,95994.22
2024-04-24T03:58:22.421Z,95999.41
2024-04-24T04:00:49.568Z,95996.22
2024-04-24T04:03:16.526Z,95994.56
2024-04-24T04:05:43.242Z,95994.38
2024-04-24T04:08:10.069Z,95986.81
2024-04-24T04:10:36.831Z,95980.94
2024-04-24T04:13:04.656Z,95988.16
2024-04-24T04:15:31.668Z,95986.47
2024-04-24T04:17:58.580Z,95982.22
2024-04-24T04:20:25.549Z,95975.13
2024-04-24T04:22:54.825Z,95974.22
2024-04-24T04:25:22.087Z,95984.06
2024-04-24T04:27:49.707Z,95978.25
2024-04-24T04:30:16.700Z,95973.88
2024-04-24T04:32:44.144Z,95982.59
2024-04-24T04:35:11.532Z,95975.97
2024-04-24T04:37:39.643Z,95979.50
2024-04-24T04:40:07.803Z,95982.25
2024-04-24T04:42:34.875Z,95982.41
2024-04-24T04:45:01.812Z,95975.50
2024-04-24T04:47:30.428Z,95976.53
2024-04-24T04:49:57.252Z,95977.97
2024-04-24T04:52:23.960Z,95979.06
2024-04-24T04:54:51.404Z,95983.44
2024-04-24T04:57:18.153Z,95985.69
2024-04-24T04:59:46.221Z,95980.22
2024-04-24T05:02:13.385Z,95972.34
2024-04-24T05:04:40.242Z,95978.97
2024-04-24T05:07:07.382Z,95984.06
2024-04-24T05:09:37.528Z,95973.53
2024-04-24T05:12:07.292Z,95979.19
2024-04-24T05:14:36.218Z,95979.00
2024-04-24T05:17:03.643Z,95971.72
2024-04-24T05:19:31.370Z,95972.28
2024-04-24T05:21:58.604Z,95966.84
2024-04-24T05:24:26.278Z,95964.75
2024-04-24T05:27:12.263Z,95967.09
2024-04-24T05:29:40.080Z,95966.66
2024-04-24T05:32:07.999Z,95960.16
2024-04-24T05:34:36.030Z,95956.22
2024-04-24T05:37:03.056Z,95952.53
2024-04-24T05:39:31.301Z,95950.50
2024-04-24T05:41:58.243Z,95951.06
2024-04-24T05:44:28.921Z,95944.00
2024-04-24T05:46:56.242Z,95945.78
2024-04-24T05:49:23.742Z,95947.19
2024-04-24T05:51:51.575Z,95948.59
2024-04-24T05:54:18.875Z,95951.59
2024-04-24T05:56:45.612Z,95944.34
2024-04-24T05:59:14.597Z,95938.59
2024-04-24T06:01:42.330Z,95934.69
2024-04-24T06:04:09.685Z,95936.00
2024-04-24T06:06:37.515Z,95929.31
2024-04-24T06:09:05.167Z,95930.44
2024-04-24T06:11:32.419Z,95928.88
2024-04-24T06:14:00.443Z,95924.38
2024-04-24T06:16:27.277Z,95920.53
2024-04-24T06:18:54.916Z,95917.19
2024-04-24T06:21:22.042Z,95919.78
2024-04-24T06:23:49.917Z,95918.34
2024-04-24T06:26:17.976Z,95921.81
2024-04-24T06:28:45.643Z,95917.13
2024-04-24T06:31:13.226Z,95914.13
2024-04-24T06:33:40.744Z,95916.16
2024-04-24T06:36:08.304Z,95919.97
2024-04-24T06:38:35.207Z,95912.75
2024-04-24T06:41:02.172Z,95907.13
2024-04-24T06:43:30.711Z,95910.09
2024-04-24T06:45:58.639Z,95921.84
2024-04-24T06:48:26.030Z,95922.38
2024-04-24T06:50:58.820Z,95919.44
2024-04-24T06:53:26.864Z,95921.03
2024-04-24T06:56:00.309Z,95919.91
2024-04-24T06:58:30.278Z,95915.19
2024-04-24T07:00:58.422Z,95911.31
2024-04-24T07:03:26.239Z,95914.38
2024-04-24T07:05:53.731Z,95908.53
2024-04-24T07:08:23.640Z,95910.94
2024-04-24T07:10:53.348Z,95903.06
2024-04-24T07:13:21.754Z,95910.75
2024-04-24T07:15:48.504Z,95901.94
2024-04-24T07:18:15.325Z,95904.34
2024-04-24T07:20:43.434Z,95902.47
2024-04-24T07:23:11.923Z,95891.16
2024-04-24T07:25:39.657Z,95891.06
2024-04-24T07:28:08.506Z,95898.91
2024-04-24T07:30:36.374Z,95907.47
2024-04-24T07:33:03.283Z,95901.09
2024-04-24T07:35:30.202Z,95910.09
2024-04-24T07:37:57.682Z,95903.50
2024-04-24T07:40:24.908Z,95899.53
2024-04-24T07:42:53.401Z,95897.75
2024-04-24T07:45:20.413Z,95896.06
2024-04-24T07:47:47.457Z,95888.03
2024-04-24T07:50:14.680Z,95884.88
2024-04-24T07:52:41.471Z,95886.84
2024-04-24T07:55:08.553Z,95880.59
2024-04-24T07:57:35.571Z,95881.31
2024-04-24T08:00:02.668Z,95877.75
2024-04-24T08:02:39.014Z,95883.41
2024-04-24T08:05:06.688Z,95876.41
2024-04-24T08:07:36.478Z,95874.06
2024-04-24T08:10:03.636Z,95881.50
2024-04-24T08:12:30.921Z,95876.69
2024-04-24T08:14:58.856Z,95866.50
2024-04-24T08:17:26.199Z,95865.13
2024-04-24T08:19:53.738Z,95862.84
2024-04-24T08:22:20.981Z,95858.75
2024-04-24T08:24:48.066Z,95862.84
2024-04-24T08:27:16.066Z,95865.44
2024-04-24T08:29:43.284Z,95866.28
2024-04-24T08:32:10.367Z,95859.75
2024-04-24T08:34:37.581Z,95861.34
2024-04-24T08:37:04.627Z,95862.78
2024-04-24T08:39:32.530Z,95863.19
2024-04-24T08:42:00.581Z,95858.78
2024-04-24T08:44:32.706Z,95860.41
2024-04-24T08:47:01.476Z,95853.91
2024-04-24T08:49:32.976Z,95850.56
2024-04-24T08:52:02.350Z,95850.56
2024-04-24T08:54:31.101Z,95851.50
2024-04-24T08:57:01.540Z,95849.22
2024-04-24T08:59:30.543Z,95866.72
2024-04-24T09:02:09.026Z,95862.88
2024-04-24T09:04:37.632Z,95860.91
2024-04-24T09:07:05.053Z,95868.91
2024-04-24T09:09:33.433Z,95863.75
2024-04-24T09:12:06.956Z,95865.00
2024-04-24T09:14:34.744Z,95857.41
2024-04-24T09:17:03.714Z,95861.38
2024-04-24T09:19:32.979Z,95858.84
2024-04-24T09:22:01.307Z,95851.22
2024-04-24T09:24:28.621Z,95848.72
2024-04-24T09:26:57.255Z,95854.47
2024-04-24T09:29:24.318Z,95846.41
2024-04-24T09:31:51.307Z,95847.13
2024-04-24T09:34:18.497Z,95845.25
2024-04-24T09:36:48.390Z,95846.94
2024-04-24T09:39:17.219Z,95843.25
2024-04-24T09:41:47.802Z,95838.56
2024-04-24T09:44:16.111Z,95839.81
2024-04-24T09:46:55.173Z,95831.81
2024-04-24T09:49:22.703Z,95838.63
2024-04-24T09:51:51.517Z,95833.19
2024-04-24T09:54:19.194Z,95833.69
2024-04-24T09:56:48.032Z,95835.03
2024-04-24T09:59:19.018Z,95833.03
2024-04-24T10:01:55.035Z,95828.63
2024-04-24T10:04:24.591Z,95831.47
2024-04-24T10:06:52.197Z,95832.06
2024-04-24T10:09:24.434Z,95823.66
2024-04-24T10:12:05.962Z,95832.97
2024-04-24T10:14:35.894Z,95828.78
2024-04-24T10:17:03.795Z,95831.25
2024-04-24T10:19:31.913Z,95833.53
2024-04-24T10:22:00.168Z,95828.44
2024-04-24T10:24:28.514Z,95824.19
2024-04-24T10:26:56.228Z,95830.59
2024-04-24T10:29:24.222Z,95822.53
2024-04-24T10:31:55.232Z,95822.69
2024-04-24T10:34:25.079Z,95823.75
2024-04-24T10:36:53.199Z,95822.44
2024-04-24T10:39:20.787Z,95817.31
2024-04-24T10:41:48.657Z,95822.34
2024-04-24T10:44:16.979Z,95815.97
2024-04-24T10:46:46.225Z,95813.75
2024-04-24T10:49:13.125Z,95808.03
2024-04-24T10:51:47.979Z,95805.06
2024-04-24T10:54:15.701Z,95812.59
2024-04-24T10:56:43.912Z,95812.34
2024-04-24T10:59:11.698Z,95806.41
2024-04-24T11:01:52.376Z,95801.03
2024-04-24T11:04:27.539Z,95807.63
2024-04-24T11:06:54.964Z,95803.06
2024-04-24T11:09:22.225Z,95801.19
2024-04-24T11:11:55.308Z,95806.94
2024-04-24T11:14:22.501Z,95803.41
2024-04-24T11:16:59.619Z,95799.63
2024-04-24T11:19:26.697Z,95802.59
2024-04-24T11:21:53.829Z,95795.41
2024-04-24T11:24:34.268Z,95802.22
2024-04-24T11:27:02.088Z,95791.00
2024-04-24T11:29:37.045Z,95799.84
2024-04-24T11:32:05.720Z,95783.84
2024-04-24T11:34:33.578Z,95776.81
2024-04-24T11:37:00.569Z,95787.59
2024-04-24T11:39:27.402Z,95780.66
2024-04-24T11:41:56.322Z,95773.63
2024-04-24T11:44:23.398Z,95776.72
2024-04-24T11:46:50.229Z,95769.09
2024-04-24T11:49:19.984Z,95779.34
2024-04-24T11:51:48.136Z,95775.91
2024-04-24T11:54:14.882Z,95777.34
2024-04-24T11:56:43.291Z,95769.81
2024-04-24T11:59:10.634Z,95773.63
2024-04-24T12:01:40.038Z,95771.72
2024-04-24T12:04:08.146Z,95769.91
2024-04-24T12:06:43.281Z,95763.22
2024-04-24T12:09:11.741Z,95764.78
2024-04-24T12:11:46.053Z,95758.00
2024-04-24T12:14:15.966Z,95759.53
2024-04-24T12:16:43.837Z,95758.81
2024-04-24T12:19:10.862Z,95760.97
2024-04-24T12:21:37.685Z,95753.09
2024-04-24T12:24:04.619Z,95746.16
2024-04-24T12:26:31.748Z,95734.31
2024-04-24T12:28:58.533Z,95739.06
2024-04-24T12:31:25.376Z,95729.91
2024-04-24T12:33:52.442Z,95728.53
2024-04-24T12:36:19.295Z,95731.78
2024-04-24T12:38:46.041Z,95732.13
2024-04-24T12:41:12.808Z,95724.50
2024-04-24T12:43:39.602Z,95733.72
2024-04-24T12:46:07.298Z,95724.97
2024-04-24T12:48:35.125Z,95718.59
2024-04-24T12:51:07.494Z,95720.41
2024-04-24T12:53:34.369Z,95720.00
2024-04-24T12:56:01.098Z,95708.53
2024-04-24T12:58:27.844Z,95714.34
2024-04-24T13:00:54.624Z,95707.16
2024-04-24T13:03:21.663Z,95716.16
2024-04-24T13:05:48.432Z,95719.84
2024-04-24T13:08:15.231Z,95715.25
2024-04-24T13:10:43.035Z,95712.25
2024-04-24T13:13:09.806Z,95712.25
2024-04-24T13:15:36.584Z,95712.66
2024-04-24T13:18:04.431Z,95710.06
2024-04-24T13:20:31.391Z,95723.09
2024-04-24T13:22:58.219Z,95714.38
2024-04-24T13:25:24.972Z,95715.47
2024-04-24T13:27:51.656Z,95718.97
2024-04-24T13:30:18.547Z,95715.38
2024-04-24T13:32:45.396Z,95708.56
2024-04-24T13:35:12.283Z,95715.09
2024-04-24T13:37:39.137Z,95740.53
2024-04-24T13:40:06.547Z,95735.22
2024-04-24T13:42:33.448Z,95734.50
2024-04-24T13:45:00.377Z,95738.88
2024-04-24T13:47:28.824Z,95760.38
2024-04-24T13:49:55.737Z,95751.97
2024-04-24T13:52:22.455Z,95761.00
2024-04-24T13:54:49.395Z,95751.81
2024-04-24T13:57:16.270Z,95737.91
2024-04-24T13:59:43.128Z,95735.03
2024-04-24T14:02:09.912Z,95729.81
2024-04-24T14:04:36.668Z,95723.75
2024-04-24T14:07:03.483Z,95713.59
2024-04-24T14:09:30.233Z,95719.88
2024-04-24T14:11:56.953Z,95718.41
2024-04-24T14:14:24.055Z,95709.72
2024-04-24T14:16:50.967Z,95719.69
2024-04-24T14:19:17.847Z,95704.16
2024-04-24T14:21:44.546Z,95699.13
2024-04-24T14:24:11.251Z,95682.13
2024-04-24T14:26:37.983Z,95689.03
2024-04-24T14:29:04.775Z,95678.09
2024-04-24T14:31:31.562Z,95680.25
2024-04-24T14:33:58.233Z,95677.09
2024-04-24T14:36:24.930Z,95675.75
2024-04-24T14:38:54.426Z,95672.44
2024-04-24T14:41:21.139Z,95671.97
2024-04-24T14:43:48.031Z,95666.00
2024-04-24T14:46:14.948Z,95662.19
2024-04-24T14:48:41.981Z,95663.81
2024-04-24T14:51:08.869Z,95662.63
2024-04-24T14:53:36.138Z,95660.66
2024-04-24T14:56:05.105Z,95664.25
2024-04-24T14:58:31.833Z,95654.22
2024-04-24T15:00:58.754Z,95657.75
2024-04-24T15:03:25.707Z,95654.94
2024-04-24T15:05:52.625Z,95659.44
2024-04-24T15:08:19.455Z,95657.72
2024-04-24T15:10:46.266Z,95653.47
2024-04-24T15:13:13.477Z,95661.09
2024-04-24T15:15:44.542Z,95646.06
2024-04-24T15:18:11.371Z,95650.44
2024-04-24T15:20:39.266Z,95649.09
2024-04-24T15:23:06.052Z,95660.69
2024-04-24T15:25:32.812Z,95650.66
2024-04-24T15:27:59.773Z,95654.09
2024-04-24T15:30:29.342Z,95651.09
2024-04-24T15:32:56.154Z,95640.66
2024-04-24T15:35:22.924Z,95648.03
2024-04-24T15:37:50.853Z,95648.03
2024-04-24T15:40:17.579Z,95645.66
2024-04-24T15:42:44.306Z,95638.09
2024-04-24T15:45:11.098Z,95647.91
2024-04-24T15:47:38.010Z,95650.19
2024-04-24T15:50:05.231Z,95646.97
2024-04-24T15:52:31.992Z,95655.47
2024-04-24T15:54:59.932Z,95673.06
2024-04-24T15:57:26.690Z,95676.97
2024-04-24T15:59:53.439Z,95673.94
2024-04-24T16:02:20.262Z,95687.22
2024-04-24T16:04:47.009Z,95700.03
2024-04-24T16:07:13.933Z,95692.47
2024-04-24T16:09:40.752Z,95695.00
2024-04-24T16:12:09.153Z,95693.72
2024-04-24T16:14:36.057Z,95697.06
2024-04-24T16:17:04.853Z,95702.97
2024-04-24T16:19:31.714Z,95707.88
2024-04-24T16:21:58.503Z,95712.19
2024-04-24T16:24:25.374Z,95718.19
2024-04-24T16:26:52.115Z,95733.72
2024-04-24T16:29:18.938Z,95742.38
2024-04-24T16:31:45.673Z,95729.34
2024-04-24T16:34:12.493Z,95732.59
2024-04-24T16:36:39.231Z,95725.88
2024-04-24T16:39:06.080Z,95723.09
2024-04-24T16:41:32.955Z,95717.84
2024-04-24T16:43:59.925Z,95715.94
2024-04-24T16:46:27.960Z,95705.97
2024-04-24T16:48:54.795Z,95707.31
2024-04-24T16:51:21.565Z,95698.13
2024-04-24T16:53:48.405Z,95702.03
2024-04-24T16:56:18.230Z,95704.72
2024-04-24T16:58:45.085Z,95700.00
2024-04-24T17:01:13.513Z,95696.41
2024-04-24T17:03:40.259Z,95689.94
2024-04-24T17:06:07.100Z,95688.16
2024-04-24T17:08:34.016Z,95684.72
2024-04-24T17:11:00.911Z,95687.94
2024-04-24T17:13:27.904Z,95686.50
2024-04-24T17:15:54.661Z,95688.78
2024-04-24T17:18:21.669Z,95682.38
2024-04-24T17:20:49.081Z,95684.28
2024-04-24T17:23:15.862Z,95678.19
2024-04-24T17:25:42.567Z,95682.50
2024-04-24T17:28:09.316Z,95677.28
2024-04-24T17:30:36.030Z,95684.50
2024-04-24T17:33:03.133Z,95690.44
2024-04-24T17:35:30.044Z,95677.88
2024-04-24T17:37:56.976Z,95680.50
2024-04-24T17:40:24.183Z,95687.28
2024-04-24T17:42:50.916Z,95690.84
2024-04-24T17:45:17.701Z,95692.84
2024-04-24T17:47:44.594Z,95691.59
2024-04-24T17:50:11.426Z,95694.31
2024-04-24T17:52:38.344Z,95704.03
2024-04-24T17:55:06.510Z,95706.66
2024-04-24T17:57:35.775Z,95715.03
2024-04-24T18:00:03.997Z,95712.41
2024-04-24T18:02:31.548Z,95723.09
2024-04-24T18:05:01.640Z,95727.41
2024-04-24T18:07:32.264Z,95731.19
2024-04-24T18:09:59.048Z,95727.94
2024-04-24T18:12:25.875Z,95723.88
2024-04-24T18:14:52.595Z,95728.97
2024-04-24T18:17:20.143Z,95729.31
2024-04-24T18:19:46.859Z,95736.88
2024-04-24T18:22:13.928Z,95741.03
2024-04-24T18:24:42.307Z,95732.69
2024-04-24T18:27:09.128Z,95746.91
2024-04-24T18:29:36.347Z,95739.56
2024-04-24T18:32:03.233Z,95742.09
2024-04-24T18:34:30.015Z,95745.66
2024-04-24T18:36:56.722Z,95739.69
2024-04-24T18:39:23.645Z,95748.19
2024-04-24T18:41:50.504Z,95748.41
2024-04-24T18:44:17.366Z,95760.97
2024-04-24T18:46:44.090Z,95755.59
2024-04-24T18:49:10.930Z,95755.91
2024-04-24T18:51:37.692Z,95758.84
2024-04-24T18:54:04.537Z,95763.69
2024-04-24T18:56:31.363Z,95761.47
2024-04-24T18:58:58.324Z,95754.00
2024-04-24T19:01:25.131Z,95761.34
2024-04-24T19:03:51.867Z,95755.81
2024-04-24T19:06:18.672Z,95765.81
2024-04-24T19:08:46.140Z,95768.44
2024-04-24T19:11:12.979Z,95763.09
2024-04-24T19:13:39.836Z,95765.59
2024-04-24T19:16:06.861Z,95770.09
2024-04-24T19:18:33.595Z,95770.22
2024-04-24T19:21:05.839Z,95770.91
2024-04-24T19:23:32.616Z,95766.41
2024-04-24T19:25:59.497Z,95769.41
2024-04-24T19:28:26.299Z,95772.34
2024-04-24T19:30:52.985Z,95776.53
2024-04-24T19:33:20.409Z,95770.66
2024-04-24T19:35:49.162Z,95769.09
2024-04-24T19:38:17.221Z,95773.13
2024-04-24T19:40:46.963Z,95778.38
2024-04-24T19:43:13.720Z,95774.56
2024-04-24T19:45:40.486Z,95771.66
2024-04-24T19:48:07.841Z,95769.47
2024-04-24T19:50:37.677Z,95771.25
2024-04-24T19:53:04.637Z,95769.84
2024-04-24T19:55:35.832Z,95769.97
2024-04-24T19:58:02.987Z,95770.97
2024-04-24T20:00:29.928Z,95775.28
2024-04-24T20:02:56.746Z,95776.19
2024-04-24T20:05:23.522Z,95776.19
2024-04-24T20:07:50.465Z,95775.66
2024-04-24T20:10:17.337Z,95783.00
2024-04-24T20:12:44.097Z,95779.09
2024-04-24T20:15:10.868Z,95780.56
2024-04-24T20:17:37.773Z,95777.13
2024-04-24T20:20:05.079Z,95785.47
2024-04-24T20:22:31.779Z,95794.22
2024-04-24T20:24:58.939Z,95782.72
2024-04-24T20:27:25.665Z,95793.28
2024-04-24T20:29:53.052Z,95793.38
2024-04-24T20:32:20.103Z,95799.34
2024-04-24T20:34:46.888Z,95798.41
2024-04-24T20:37:13.608Z,95798.59
2024-04-24T20:39:41.738Z,95797.84
2024-04-24T20:42:11.085Z,95803.91
2024-04-24T20:44:38.776Z,95790.31
2024-04-24T20:47:05.590Z,95797.41
2024-04-24T20:49:32.499Z,95803.47
2024-04-24T20:51:59.294Z,95800.00
2024-04-24T20:54:26.056Z,95796.03
2024-04-24T20:56:52.790Z,95803.84
2024-04-24T20:59:21.249Z,95804.97
2024-04-24T21:01:48.081Z,95797.13
2024-04-24T21:04:14.852Z,95793.78
2024-04-24T21:06:41.567Z,95804.06
2024-04-24T21:09:08.263Z,95805.91
2024-04-24T21:11:34.964Z,95797.34
2024-04-24T21:14:02.271Z,95792.50
2024-04-24T21:16:29.023Z,95791.56
2024-04-24T21:18:55.905Z,95790.63
2024-04-24T21:21:23.453Z,95793.44
2024-04-24T21:23:54.090Z,95795.22
2024-04-24T21:26:22.533Z,95793.44
2024-04-24T21:28:49.381Z,95789.13
2024-04-24T21:31:16.125Z,95790.91
2024-04-24T21:33:43.005Z,95789.25
2024-04-24T21:36:09.830Z,95788.31
2024-04-24T21:38:36.759Z,95780.41
2024-04-24T21:41:07.529Z,95785.63
2024-04-24T21:43:34.321Z,95785.41
2024-04-24T21:46:06.662Z,95781.22
2024-04-24T21:48:33.951Z,95783.63
2024-04-24T21:51:00.672Z,95790.34
2024-04-24T21:53:27.692Z,95786.69
2024-04-24T21:55:58.143Z,95792.97
2024-04-24T21:58:25.378Z,95779.69
2024-04-24T22:00:52.235Z,95789.13
2024-04-24T22:03:19.586Z,95784.75
2024-04-24T22:05:46.551Z,95784.63
2024-04-24T22:08:13.429Z,95782.78
2024-04-24T22:10:40.805Z,95785.28
2024-04-24T22:13:07.643Z,95788.38
2024-04-24T22:15:36.666Z,95794.34
2024-04-24T22:18:05.455Z,95794.22
2024-04-24T22:20:32.360Z,95797.47
2024-04-24T22:22:59.299Z,95797.06
2024-04-24T22:25:27.044Z,95794.59
2024-04-24T22:27:53.797Z,95794.28
2024-04-24T22:30:20.565Z,95794.91
2024-04-24T22:32:47.498Z,95792.75
2024-04-24T22:35:14.353Z,95797.78
2024-04-24T22:37:41.265Z,95799.56
2024-04-24T22:40:08.351Z,95797.59
2024-04-24T22:42:35.052Z,95798.34
2024-04-24T22:45:01.766Z,95800.94
2024-04-24T22:47:28.564Z,95794.03
2024-04-24T22:49:55.407Z,95792.25
2024-04-24T22:52:22.092Z,95794.69
2024-04-24T22:54:49.508Z,95796.16
2024-04-24T22:57:16.244Z,95791.97
2024-04-24T22:59:43.001Z,95785.06
2024-04-24T23:02:09.790Z,95788.59
2024-04-24T23:04:36.556Z,95787.59
2024-04-24T23:07:03.453Z,95793.44
2024-04-24T23:09:30.221Z,95792.91
2024-04-24T23:11:57.033Z,95794.56
2024-04-24T23:14:26.405Z,95786.00
2024-04-24T23:16:54.067Z,95780.88
2024-04-24T23:19:21.484Z,95776.50
2024-04-24T23:21:48.981Z,95775.53
2024-04-24T23:24:16.408Z,95780.88
2024-04-24T23:26:47.515Z,95776.50
2024-04-24T23:29:15.017Z,95774.09
2024-04-24T23:31:41.808Z,95780.44
2024-04-24T23:34:08.623Z,95776.88
2024-04-24T23:36:35.301Z,95770.81
2024-04-24T23:39:06.064Z,95776.16
2024-04-24T23:41:32.739Z,95769.25
2024-04-24T23:43:59.453Z,95774.69
2024-04-24T23:46:26.140Z,95773.00
2024-04-24T23:48:53.480Z,95773.56
2024-04-24T23:51:20.133Z,95770.81
2024-04-24T23:53:48.711Z,95775.84
2024-04-24T23:56:18.931Z,95774.09
2024-04-24T23:58:45.854Z,95769.78
